Terminal Aerodrome Forecast
Issued by NWS

Home | Current Version | Previous Version | Text Only | Print | Product List | Glossary Off
Versions: 1 2 3 4 5 6 7 8 9 10 11 12 13 14 15 16 17 18 19

000
FTUS42 KMHX 220407 AAA
TAFPGV
TAF AMD
KPGV 220407Z 2204/2224 VRB04KT P6SM SCT250
      TEMPO 2204/2207 2SM BR
     FM221400 11007KT P6SM FEW050 BKN200
      AMD LTD TO CLD VIS AND WIND=

USA.gov is the U.S. government's official web portal to all federal, state and local government web resources and services.